Time;durP1;ratioP1;P1;durP2;ratioP2;P2;SDS_P1;SDS_P2;PMS_P1;PMS_P2;Temp;Humidity;BMP_temperature;BMP_pressure;BME280_temperature;BME280_humidity;BME280_pressure;Samples;Min_cycle;Max_cycle;Signal;HPM_P1;HPM_P2
2022/04/17 00:00:26;;;;;;;4.10;2.03;;;9.50;57.50;;;;;;5062854;28;20020;-86
2022/04/17 00:02:53;;;;;;;3.33;2.10;;;9.50;57.50;;;;;;5068115;28;20069;-86
2022/04/17 00:05:19;;;;;;;3.55;2.30;;;11.10;58.80;;;;;;5063028;28;20028;-83
2022/04/17 00:07:45;;;;;;;3.25;2.25;;;9.40;57.60;;;;;;5075262;28;20029;-87
2022/04/17 00:10:11;;;;;;;12.20;6.93;;;9.60;58.00;;;;;;5083096;28;20040;-87
2022/04/17 00:12:41;;;;;;;4.10;2.20;;;9.50;58.00;;;;;;5069227;28;20869;-86
2022/04/17 00:15:10;;;;;;;3.83;2.25;;;9.30;58.30;;;;;;5068559;28;20107;-86
2022/04/17 00:17:42;;;;;;;3.17;2.10;;;;;;;;;;5075884;28;20037;-87
2022/04/17 00:20:15;;;;;;;11.55;3.33;;;9.30;58.50;;;;;;5065377;28;20078;-87
2022/04/17 00:22:41;;;;;;;3.55;2.20;;;;;;;;;;5058443;28;20025;-86
2022/04/17 00:25:08;;;;;;;4.75;2.03;;;9.30;58.80;;;;;;5081715;28;20032;-88
2022/04/17 00:27:34;;;;;;;3.40;2.40;;;9.30;59.00;;;;;;5090740;28;20029;-85
2022/04/17 00:30:01;;;;;;;3.42;2.08;;;9.20;58.90;;;;;;5066826;28;20017;-86
2022/04/17 00:32:27;;;;;;;3.95;2.05;;;9.20;59.00;;;;;;5078173;28;20035;-84
2022/04/17 00:34:52;;;;;;;4.88;1.95;;;9.20;59.70;;;;;;5066889;28;20032;-85
2022/04/17 00:37:18;;;;;;;3.47;2.30;;;9.10;59.20;;;;;;5059968;28;20012;-87
2022/04/17 00:39:44;;;;;;;4.43;2.00;;;;;;;;;;5075692;28;20020;-84
2022/04/17 00:42:10;;;;;;;3.63;2.13;;;9.10;59.80;;;;;;5060952;28;20020;-85
2022/04/17 00:44:45;;;;;;;3.35;2.10;;;;;;;;;;5057919;28;20364;-87
2022/04/17 00:47:15;;;;;;;5.35;2.72;;;;;;;;;;5076751;28;20030;-84
2022/04/17 00:49:43;;;;;;;3.45;1.95;;;9.00;60.40;;;;;;5077719;28;20440;-87
2022/04/17 00:52:08;;;;;;;4.00;1.90;;;9.10;60.30;;;;;;5040086;28;1228345;-84
2022/04/17 00:54:38;;;;;;;6.13;3.17;;;9.10;60.30;;;;;;5049205;28;20107;-84
2022/04/17 00:57:06;;;;;;;2.97;1.80;;;9.10;60.60;;;;;;5080968;28;20068;-87
2022/04/17 00:59:33;;;;;;;4.97;2.72;;;;;;;;;;5070203;28;20266;-87
2022/04/17 01:01:59;;;;;;;4.07;2.13;;;;;;;;;;5081796;28;20467;-85
2022/04/17 01:04:26;;;;;;;4.45;2.10;;;;;;;;;;5081487;28;20027;-86
2022/04/17 01:06:52;;;;;;;5.03;2.30;;;9.00;61.40;;;;;;5079090;28;20115;-86
2022/04/17 01:09:18;;;;;;;4.75;2.00;;;;;;;;;;5065336;28;20024;-85
2022/04/17 01:11:44;;;;;;;4.28;2.35;;;;;;;;;;5064632;28;21005;-87
2022/04/17 01:14:12;;;;;;;4.55;2.22;;;8.90;62.20;;;;;;5071592;28;20375;-84
2022/04/17 01:16:38;;;;;;;4.43;2.20;;;;;;;;;;5078995;28;20021;-85
2022/04/17 01:19:13;;;;;;;4.47;2.08;;;8.80;62.60;;;;;;5065252;28;20025;-86
2022/04/17 01:21:41;;;;;;;3.40;1.90;;;8.80;62.30;;;;;;5063323;28;20034;-86
2022/04/17 01:26:56;;;;;;;3.42;1.90;;;;;;;;;;5086411;28;20044;-82
2022/04/17 01:29:23;;;;;;;2.85;1.80;;;;;;;;;;5053946;28;20081;-84
2022/04/17 01:31:49;;;;;;;3.67;2.55;;;;;;;;;;5084575;28;20035;-86
2022/04/17 01:34:18;;;;;;;2.55;1.77;;;8.60;62.70;;;;;;5086095;28;20025;-83
2022/04/17 01:36:44;;;;;;;3.47;1.90;;;;;;;;;;5078663;28;20063;-84
2022/04/17 01:39:11;;;;;;;3.95;1.90;;;8.70;62.70;;;;;;5058755;28;20024;-86
2022/04/17 01:41:37;;;;;;;3.10;1.80;;;;;;;;;;5082083;28;20078;-89
2022/04/17 01:44:03;;;;;;;5.22;2.10;;;;;;;;;;5063416;28;20025;-82
2022/04/17 01:46:29;;;;;;;2.95;1.67;;;;;;;;;;5063601;28;20036;-84
2022/04/17 01:48:55;;;;;;;3.92;1.80;;;;;;;;;;5083117;28;20033;-84
2022/04/17 01:51:21;;;;;;;3.55;2.00;;;;;;;;;;5076077;28;20028;-84
2022/04/17 01:53:48;;;;;;;3.00;1.73;;;8.40;63.90;;;;;;5071175;28;20031;-86
2022/04/17 01:56:14;;;;;;;3.63;2.30;;;;;;;;;;5068207;28;20020;-87
2022/04/17 01:58:40;;;;;;;3.63;1.73;;;;;;;;;;5083867;28;20462;-87
2022/04/17 02:01:06;;;;;;;3.08;1.63;;;;;;;;;;5068157;28;20051;-86
2022/04/17 02:03:32;;;;;;;6.35;2.70;;;;;;;;;;5083455;28;20090;-85
2022/04/17 02:06:00;;;;;;;4.53;1.70;;;;;;;;;;5073010;28;20024;-84
2022/04/17 02:08:28;;;;;;;3.30;1.67;;;;;;;;;;5082270;28;20029;-83
2022/04/17 02:10:54;;;;;;;3.03;1.80;;;;;;;;;;5072507;28;20110;-85
2022/04/17 02:13:20;;;;;;;3.20;1.80;;;;;;;;;;5085512;28;20054;-87
2022/04/17 02:15:47;;;;;;;5.78;1.77;;;;;;;;;;5080605;28;20028;-87
2022/04/17 02:18:13;;;;;;;2.83;1.90;;;;;;;;;;5069751;28;20571;-85
2022/04/17 02:20:39;;;;;;;3.67;2.30;;;;;;;;;;5086716;28;20028;-87
2022/04/17 02:23:05;;;;;;;4.32;2.20;;;;;;;;;;5070696;28;20021;-84
2022/04/17 02:25:31;;;;;;;4.35;2.10;;;;;;;;;;5086204;28;20030;-83
2022/04/17 02:27:57;;;;;;;3.85;1.70;;;;;;;;;;5062950;28;20089;-83
2022/04/17 02:30:23;;;;;;;2.42;1.55;;;;;;;;;;5062946;28;20553;-85
2022/04/17 02:32:49;;;;;;;3.83;2.10;;;;;;;;;;5072909;28;20056;-86
2022/04/17 02:35:17;;;;;;;5.28;2.17;;;7.80;67.50;;;;;;5081449;28;20031;-83
2022/04/17 02:37:43;;;;;;;6.10;1.95;;;;;;;;;;5085692;28;20035;-86
2022/04/17 02:40:09;;;;;;;3.97;1.83;;;;;;;;;;5083115;28;20025;-87
2022/04/17 02:42:35;;;;;;;5.15;2.42;;;;;;;;;;5088437;28;20055;-85
2022/04/17 02:45:01;;;;;;;6.70;2.10;;;;;;;;;;5083657;28;20025;-85
2022/04/17 02:47:51;;;;;;;4.47;1.80;;;;;;;;;;5067715;28;20028;-86
2022/04/17 02:50:18;;;;;;;5.30;1.92;;;7.70;67.40;;;;;;5079535;28;20039;-85
2022/04/17 02:52:45;;;;;;;3.30;1.73;;;;;;;;;;5083861;28;20025;-87
2022/04/17 02:55:11;;;;;;;5.68;2.03;;;;;;;;;;5083483;28;20021;-86
2022/04/17 02:57:37;;;;;;;3.78;1.95;;;;;;;;;;5083512;28;20557;-86
2022/04/17 03:00:07;;;;;;;6.78;1.75;;;7.50;68.40;;;;;;5090331;28;20024;-87
2022/04/17 03:05:37;;;;;;;3.85;1.95;;;8.60;69.70;;;;;;5080432;28;20035;-86
2022/04/17 03:08:14;;;;;;;3.42;1.73;;;9.60;70.20;;;;;;5088692;28;20040;-87
2022/04/17 03:10:48;;;;;;;2.83;1.90;;;9.60;70.20;;;;;;5085609;28;20065;-81
2022/04/17 03:13:15;;;;;;;3.33;1.63;;;7.50;68.90;;;;;;5068246;28;20020;-86
2022/04/17 03:15:41;;;;;;;2.95;2.00;;;;;;;;;;5057966;28;20042;-87
2022/04/17 03:18:11;;;;;;;3.85;1.70;;;7.50;68.80;;;;;;5071366;28;20016;-86
2022/04/17 03:20:39;;;;;;;2.97;1.67;;;7.10;68.50;;;;;;5063852;28;20017;-84
2022/04/17 03:23:05;;;;;;;4.28;1.95;;;;;;;;;;5085031;28;20016;-84
2022/04/17 03:25:31;;;;;;;2.50;1.70;;;7.40;69.30;;;;;;5080092;28;20021;-86
2022/04/17 03:27:59;;;;;;;2.55;1.60;;;;;;;;;;5067909;28;20024;-86
2022/04/17 03:30:25;;;;;;;4.55;1.73;;;;;;;;;;5084162;28;20104;-85
2022/04/17 03:32:51;;;;;;;2.83;1.70;;;;;;;;;;5047650;28;20092;-85
2022/04/17 03:35:18;;;;;;;3.00;1.60;;;7.20;70.90;;;;;;5070194;28;20008;-85
2022/04/17 03:37:44;;;;;;;3.60;1.80;;;;;;;;;;5079528;28;20478;-86
2022/04/17 03:40:15;;;;;;;4.97;1.95;;;7.20;70.70;;;;;;5085050;28;20025;-85
2022/04/17 03:42:41;;;;;;;3.15;1.92;;;;;;;;;;5066235;28;20025;-86
2022/04/17 03:45:11;;;;;;;2.85;1.75;;;7.20;70.90;;;;;;5067779;28;20020;-84
2022/04/17 03:47:37;;;;;;;3.30;1.75;;;;;;;;;;5085628;28;20024;-87
2022/04/17 03:50:03;;;;;;;4.70;2.28;;;;;;;;;;5081305;28;20025;-85
2022/04/17 03:52:47;;;;;;;3.95;2.47;;;7.10;71.70;;;;;;5082777;28;20032;-88
2022/04/17 03:55:14;;;;;;;6.60;2.53;;;6.90;72.00;;;;;;5081770;28;20025;-88
2022/04/17 03:57:40;;;;;;;5.65;2.60;;;7.00;72.30;;;;;;5064005;28;20017;-86
2022/04/17 04:00:09;;;;;;;4.10;2.20;;;7.40;72.60;;;;;;5078309;28;20062;-87
2022/04/17 04:02:35;;;;;;;2.15;1.58;;;;;;;;;;5069864;28;20024;-88
2022/04/17 04:05:01;;;;;;;3.92;1.80;;;;;;;;;;5080246;28;20046;-86
2022/04/17 04:07:27;;;;;;;3.10;1.80;;;;;;;;;;5073419;28;20302;-88
2022/04/17 04:09:53;;;;;;;3.38;1.90;;;;;;;;;;5059554;28;20029;-88
2022/04/17 04:12:19;;;;;;;3.15;1.70;;;7.00;72.30;;;;;;5064342;28;20028;-88
2022/04/17 04:14:45;;;;;;;4.40;1.80;;;;;;;;;;5064111;28;20055;-83
2022/04/17 04:17:12;;;;;;;4.30;2.20;;;;;;;;;;5083900;28;20486;-85
2022/04/17 04:19:38;;;;;;;2.90;1.80;;;;;;;;;;5071590;28;20036;-85
2022/04/17 04:22:04;;;;;;;4.45;1.63;;;6.80;72.80;;;;;;5063063;28;20024;-85
2022/04/17 04:24:31;;;;;;;4.22;2.10;;;;;;;;;;5079584;28;20020;-84
2022/04/17 04:29:42;;;;;;;4.63;2.33;;;;;;;;;;5082213;28;20058;-84
2022/04/17 04:32:08;;;;;;;3.20;1.83;;;6.70;73.90;;;;;;5066595;28;20040;-86
2022/04/17 04:34:33;;;;;;;4.28;1.98;;;6.60;74.00;;;;;;5067851;28;20032;-86
2022/04/17 04:37:00;;;;;;;3.65;1.77;;;;;;;;;;5078626;28;20099;-87
2022/04/17 04:39:26;;;;;;;2.67;1.77;;;;;;;;;;5070808;28;20054;-84
2022/04/17 04:41:51;;;;;;;5.15;1.90;;;6.60;74.60;;;;;;5072450;28;20028;-84
2022/04/17 04:44:17;;;;;;;2.60;1.85;;;8.40;76.40;;;;;;5096145;28;20000;-83
2022/04/17 04:46:43;;;;;;;4.25;1.92;;;6.50;75.10;;;;;;5075548;28;20016;-85
2022/04/17 04:51:53;;;;;;;3.72;2.10;;;6.50;75.10;;;;;;5075521;28;20036;-86
2022/04/17 04:54:19;;;;;;;2.83;1.98;;;6.60;75.70;;;;;;5082137;28;20028;-86
2022/04/17 04:56:44;;;;;;;4.00;1.95;;;6.60;75.70;;;;;;5063550;28;20482;-87
2022/04/17 04:59:10;;;;;;;3.15;1.88;;;6.50;75.60;;;;;;5066788;28;20044;-84
2022/04/17 05:01:35;;;;;;;3.20;1.60;;;6.50;75.80;;;;;;5061801;28;20032;-83
2022/04/17 05:04:02;;;;;;;2.22;1.75;;;6.50;76.10;;;;;;5064881;28;20020;-87
2022/04/17 05:06:27;;;;;;;2.97;1.63;;;6.50;75.80;;;;;;5062918;28;20030;-87
2022/04/17 05:08:53;;;;;;;5.03;1.98;;;6.60;76.20;;;;;;5057295;28;20048;-84
2022/04/17 05:11:20;;;;;;;2.67;1.80;;;;;;;;;;5064234;28;20550;-86
2022/04/17 05:13:46;;;;;;;4.55;1.83;;;;;;;;;;5060466;28;20025;-86
2022/04/17 05:16:13;;;;;;;4.70;2.10;;;;;;;;;;5075693;28;20032;-84
2022/04/17 05:18:39;;;;;;;3.33;1.80;;;;;;;;;;5077828;28;20408;-85
2022/04/17 05:21:06;;;;;;;3.50;2.00;;;;;;;;;;5084994;28;20020;-86
2022/04/17 05:23:32;;;;;;;3.95;1.77;;;;;;;;;;5062710;28;20042;-86
2022/04/17 05:26:00;;;;;;;2.90;2.13;;;6.80;75.70;;;;;;5079202;28;20031;-87
2022/04/17 05:28:27;;;;;;;5.38;2.40;;;6.60;76.00;;;;;;5065615;28;20124;-87
2022/04/17 05:30:53;;;;;;;3.47;1.85;;;;;;;;;;5066134;28;20031;-85
2022/04/17 05:33:20;;;;;;;2.15;1.60;;;6.80;75.50;;;;;;5079065;28;20029;-80
2022/04/17 05:35:46;;;;;;;4.03;2.00;;;;;;;;;;5083236;28;20025;-81
2022/04/17 05:38:13;;;;;;;5.65;2.33;;;;;;;;;;5083182;28;20032;-84
2022/04/17 05:40:41;;;;;;;3.03;1.77;;;7.00;75.50;;;;;;5077682;28;20025;-82
2022/04/17 05:43:07;;;;;;;4.80;2.20;;;7.10;75.40;;;;;;5073688;28;20024;-82
2022/04/17 05:45:34;;;;;;;4.43;2.20;;;7.10;75.50;;;;;;5079862;28;20075;-82
2022/04/17 05:48:00;;;;;;;4.18;2.22;;;7.10;75.20;;;;;;5062510;28;20029;-84
2022/04/17 05:50:28;;;;;;;3.15;2.05;;;7.30;75.40;;;;;;5060835;28;20024;-82
2022/04/17 05:52:54;;;;;;;3.10;1.90;;;;;;;;;;5082935;28;20036;-84
2022/04/17 05:55:20;;;;;;;7.40;2.20;;;7.30;74.20;;;;;;5069598;28;20046;-81
2022/04/17 05:57:46;;;;;;;4.57;2.10;;;7.20;74.80;;;;;;5061841;28;20132;-81
2022/04/17 06:00:13;;;;;;;3.50;2.30;;;8.90;76.00;;;;;;5063606;28;20052;-83
2022/04/17 06:02:38;;;;;;;6.70;2.33;;;7.30;74.60;;;;;;5053819;28;20469;-85
2022/04/17 06:05:05;;;;;;;3.67;1.80;;;7.40;74.50;;;;;;5063012;28;20055;-81
2022/04/17 06:07:32;;;;;;;6.45;2.30;;;7.60;73.30;;;;;;5060094;28;20024;-82
2022/04/17 06:10:02;;;;;;;3.30;1.95;;;7.60;73.30;;;;;;5064359;28;20028;-81
2022/04/17 06:12:28;;;;;;;3.72;2.05;;;7.70;73.60;;;;;;5082689;28;20246;-82
2022/04/17 06:14:54;;;;;;;4.38;1.90;;;7.60;73.40;;;;;;5062674;28;20021;-83
2022/04/17 06:17:20;;;;;;;4.03;2.08;;;7.60;73.70;;;;;;5080247;28;20044;-85
2022/04/17 06:19:45;;;;;;;5.07;2.38;;;9.70;74.30;;;;;;5079291;28;20021;-85
2022/04/17 06:22:11;;;;;;;4.22;1.73;;;7.70;73.10;;;;;;5056886;28;20074;-86
2022/04/17 06:24:37;;;;;;;3.72;2.10;;;;;;;;;;5063599;28;20069;-87
2022/04/17 06:27:03;;;;;;;4.25;2.00;;;7.80;73.00;;;;;;5064003;28;20119;-87
2022/04/17 06:29:29;;;;;;;3.55;2.15;;;7.90;72.70;;;;;;5060991;28;20059;-86
2022/04/17 06:31:54;;;;;;;9.82;3.42;;;8.10;72.00;;;;;;5057278;28;20035;-86
2022/04/17 06:34:20;;;;;;;3.90;1.90;;;9.20;72.80;;;;;;5063294;28;20478;-87
2022/04/17 06:36:46;;;;;;;5.13;1.98;;;8.20;71.70;;;;;;5074772;28;20024;-86
2022/04/17 06:39:11;;;;;;;5.05;2.17;;;8.30;72.00;;;;;;5062662;28;20118;-85
2022/04/17 06:41:37;;;;;;;3.55;2.00;;;8.60;70.00;;;;;;5063250;28;20031;-86
2022/04/17 06:44:03;;;;;;;4.13;1.90;;;8.50;69.90;;;;;;5065181;28;20551;-86
2022/04/17 06:46:29;;;;;;;3.65;2.00;;;;;;;;;;5083771;28;20070;-84
2022/04/17 06:48:55;;;;;;;3.38;1.88;;;;;;;;;;5078214;28;20021;-83
2022/04/17 06:51:24;;;;;;;4.38;2.15;;;;;;;;;;5073830;28;20036;-82
2022/04/17 06:53:50;;;;;;;3.13;1.98;;;9.00;68.90;;;;;;5070778;28;20104;-82
2022/04/17 06:56:18;;;;;;;2.80;1.70;;;;;;;;;;5068044;28;20028;-85
2022/04/17 06:58:48;;;;;;;3.67;1.98;;;9.00;68.60;;;;;;5048059;28;20482;-84
2022/04/17 07:01:14;;;;;;;4.00;2.10;;;;;;;;;;5043447;28;20028;-84
2022/04/17 07:03:41;;;;;;;2.50;1.88;;;9.20;68.00;;;;;;5060981;28;20228;-84
2022/04/17 07:06:07;;;;;;;5.43;2.00;;;;;;;;;;5060876;28;20033;-83
2022/04/17 07:08:33;;;;;;;2.70;1.80;;;;;;;;;;5054461;28;20033;-84
2022/04/17 07:10:59;;;;;;;3.05;2.00;;;;;;;;;;5056971;28;20044;-85
2022/04/17 07:13:26;;;;;;;3.83;1.98;;;;;;;;;;5060884;28;20029;-81
2022/04/17 07:15:51;;;;;;;3.10;1.95;;;9.60;66.70;;;;;;5059392;28;20075;-84
2022/04/17 07:18:17;;;;;;;3.67;2.13;;;10.10;67.50;;;;;;5060421;28;20037;-83
2022/04/17 07:20:42;;;;;;;3.95;2.00;;;11.90;67.60;;;;;;5045845;28;20036;-83
2022/04/17 07:23:08;;;;;;;2.45;1.60;;;9.90;65.20;;;;;;5047345;28;20029;-85
2022/04/17 07:25:35;;;;;;;3.78;1.90;;;10.40;66.10;;;;;;5057402;28;20093;-84
2022/04/17 07:28:01;;;;;;;3.58;2.00;;;10.70;65.50;;;;;;5063243;28;20044;-83
2022/04/17 07:30:30;;;;;;;2.95;1.80;;;13.00;67.20;;;;;;5044661;28;20017;-82
2022/04/17 07:32:57;;;;;;;4.03;2.05;;;10.30;65.40;;;;;;5060490;28;20098;-83
2022/04/17 07:35:25;;;;;;;2.55;1.73;;;12.20;66.70;;;;;;5044421;28;20103;-83
2022/04/17 07:37:52;;;;;;;4.45;2.00;;;11.10;65.80;;;;;;5042804;28;20020;-85
2022/04/17 07:40:21;;;;;;;4.03;2.03;;;10.80;64.70;;;;;;5064138;28;20023;-83
2022/04/17 07:42:48;;;;;;;2.88;1.98;;;11.10;63.20;;;;;;5061116;28;20025;-82
2022/04/17 07:45:15;;;;;;;2.60;1.58;;;11.20;62.90;;;;;;5045490;28;20025;-84
2022/04/17 07:47:41;;;;;;;3.53;1.83;;;13.10;64.40;;;;;;5062299;28;20074;-82
2022/04/17 07:50:08;;;;;;;4.72;1.92;;;11.60;62.00;;;;;;5046703;28;20021;-81
2022/04/17 07:52:36;;;;;;;3.13;2.17;;;11.70;61.70;;;;;;5044365;28;20033;-82
2022/04/17 07:55:03;;;;;;;2.78;1.80;;;11.70;62.20;;;;;;5041456;28;20338;-82
2022/04/17 07:57:53;;;;;;;3.50;1.80;;;11.90;61.00;;;;;;5045902;28;20020;-83
2022/04/17 08:00:19;;;;;;;3.50;2.20;;;11.80;60.40;;;;;;5057123;28;20475;-85
2022/04/17 08:02:50;;;;;;;4.20;2.03;;;12.10;60.30;;;;;;5044299;28;20035;-83
2022/04/17 08:05:16;;;;;;;4.00;2.28;;;12.20;61.10;;;;;;5040375;28;20037;-85
2022/04/17 08:07:42;;;;;;;3.38;1.88;;;12.10;60.70;;;;;;5058070;28;20021;-83
2022/04/17 08:10:10;;;;;;;3.05;1.83;;;12.10;59.00;;;;;;5059884;28;20029;-83
2022/04/17 08:12:36;;;;;;;4.20;1.95;;;12.40;58.80;;;;;;5040464;28;20071;-83
2022/04/17 08:15:02;;;;;;;2.92;1.60;;;12.30;58.60;;;;;;5059100;28;20490;-84
2022/04/17 08:17:27;;;;;;;2.88;1.80;;;12.50;58.50;;;;;;5058528;28;20033;-81
2022/04/17 08:19:53;;;;;;;3.55;1.60;;;12.70;58.00;;;;;;5059260;28;20345;-85
2022/04/17 08:22:19;;;;;;;3.53;1.58;;;;;;;;;;5061965;28;20538;-84
2022/04/17 08:24:44;;;;;;;3.72;1.70;;;12.80;55.40;;;;;;5056973;28;20490;-82
2022/04/17 08:27:11;;;;;;;3.22;1.80;;;13.70;56.10;;;;;;5049315;28;20035;-87
2022/04/17 08:29:36;;;;;;;3.55;1.70;;;13.60;56.20;;;;;;5046777;28;20028;-86
2022/04/17 08:32:02;;;;;;;3.30;2.17;;;;;;;;;;5049597;28;20054;-85
2022/04/17 08:34:28;;;;;;;2.90;1.35;;;13.30;55.00;;;;;;5058694;28;20495;-84
2022/04/17 08:36:54;;;;;;;2.47;1.50;;;13.40;54.20;;;;;;5049597;28;20028;-84
2022/04/17 08:39:20;;;;;;;2.55;1.40;;;;;;;;;;5046075;28;20035;-84
2022/04/17 08:41:50;;;;;;;3.03;1.30;;;13.40;53.00;;;;;;5058562;28;20486;-82
2022/04/17 08:44:15;;;;;;;4.03;1.38;;;13.40;53.00;;;;;;5040508;28;20017;-85
2022/04/17 08:46:44;;;;;;;3.13;1.65;;;13.60;53.30;;;;;;5057026;28;20059;-84
2022/04/17 08:49:10;;;;;;;2.47;1.38;;;14.10;51.20;;;;;;5042298;28;20568;-83
2022/04/17 08:51:38;;;;;;;2.58;1.40;;;14.10;51.30;;;;;;5040917;28;20052;-85
2022/04/17 08:54:06;;;;;;;3.67;1.63;;;14.10;51.50;;;;;;5061081;28;20036;-84
2022/04/17 08:56:32;;;;;;;3.28;1.63;;;14.20;52.00;;;;;;5057219;28;20053;-84
2022/04/17 08:58:58;;;;;;;3.50;1.23;;;14.30;51.50;;;;;;5054940;28;20526;-84
2022/04/17 09:01:25;;;;;;;9.77;1.85;;;14.20;51.50;;;;;;5058654;28;20023;-85
2022/04/17 09:03:50;;;;;;;1.75;1.10;;;14.30;51.50;;;;;;5055827;28;20029;-86
2022/04/17 09:06:20;;;;;;;2.75;1.42;;;14.80;51.00;;;;;;5038793;28;20091;-85
2022/04/17 09:09:05;;;;;;;3.40;1.25;;;14.00;50.50;;;;;;5054843;28;20041;-85
2022/04/17 09:11:33;;;;;;;2.30;1.30;;;14.40;50.70;;;;;;5047563;28;20039;-86
2022/04/17 09:14:04;;;;;;;3.00;1.70;;;14.30;51.30;;;;;;5053740;28;20080;-84
2022/04/17 09:16:33;;;;;;;2.38;1.20;;;14.30;49.90;;;;;;5056424;28;20127;-85
2022/04/17 09:18:59;;;;;;;3.03;1.63;;;;;;;;;;5039093;28;20029;-85
2022/04/17 09:21:33;;;;;;;3.22;1.27;;;14.50;49.70;;;;;;5040571;28;20032;-84
2022/04/17 09:24:18;;;;;;;2.78;1.17;;;14.60;50.00;;;;;;5043342;28;20025;-85
2022/04/17 09:26:50;;;;;;;2.65;1.38;;;14.80;50.30;;;;;;5061162;28;20029;-84
2022/04/17 09:29:23;;;;;;;2.75;1.58;;;15.10;48.50;;;;;;5032989;28;20060;-86
2022/04/17 09:32:20;;;;;;;2.55;1.70;;;14.90;48.30;;;;;;5049627;28;20124;-85
2022/04/17 09:34:52;;;;;;;2.03;1.15;;;15.00;48.30;;;;;;5058068;28;20032;-83
2022/04/17 09:37:22;;;;;;;2.58;1.42;;;15.00;47.50;;;;;;5053173;28;20025;-86
2022/04/17 09:39:50;;;;;;;3.65;1.67;;;15.60;47.50;;;;;;5038163;28;20055;-84
2022/04/17 09:42:26;;;;;;;3.58;1.38;;;15.80;45.80;;;;;;5044255;28;20040;-85
2022/04/17 09:44:57;;;;;;;2.63;1.38;;;;;;;;;;5037385;28;20072;-84
2022/04/17 09:47:29;;;;;;;1.80;1.10;;;16.00;45.40;;;;;;5047356;28;20119;-84
2022/04/17 09:49:59;;;;;;;3.58;1.80;;;16.00;45.30;;;;;;5046676;28;20029;-85
2022/04/17 09:52:31;;;;;;;2.58;1.30;;;16.30;45.60;;;;;;5059898;28;20840;-84
2022/04/17 09:54:58;;;;;;;2.20;1.05;;;;;;;;;;5044051;28;20032;-86
2022/04/17 09:57:32;;;;;;;2.47;1.60;;;16.40;45.00;;;;;;5048962;28;20025;-86
2022/04/17 10:00:18;;;;;;;1.67;1.08;;;16.30;44.80;;;;;;5043492;28;20108;-85
2022/04/17 10:02:46;;;;;;;4.88;1.48;;;16.30;44.90;;;;;;5056515;28;20107;-87
2022/04/17 10:05:15;;;;;;;3.00;1.30;;;16.30;45.50;;;;;;5036215;28;20028;-85
2022/04/17 10:07:45;;;;;;;2.75;1.15;;;16.60;44.80;;;;;;5057643;28;20090;-84
2022/04/17 10:10:12;;;;;;;2.58;1.10;;;16.50;44.80;;;;;;5047916;28;20102;-82
2022/04/17 10:12:43;;;;;;;3.17;1.40;;;16.30;43.40;;;;;;5042423;28;20052;-84
2022/04/17 10:15:11;;;;;;;2.13;1.25;;;16.30;44.50;;;;;;5062500;28;20028;-85
2022/04/17 10:17:42;;;;;;;1.98;1.20;;;16.40;43.70;;;;;;5053605;28;20036;-86
2022/04/17 10:20:13;;;;;;;1.98;1.02;;;16.60;44.00;;;;;;5062588;28;20058;-85
2022/04/17 10:22:40;;;;;;;2.20;1.02;;;16.90;44.10;;;;;;5064289;28;20498;-86
2022/04/17 10:25:10;;;;;;;2.10;1.20;;;16.80;44.00;;;;;;5068414;28;20461;-86
2022/04/17 10:27:41;;;;;;;2.50;1.42;;;17.30;43.50;;;;;;5057763;28;20025;-84
2022/04/17 10:30:54;;;;;;;2.13;1.20;;;17.50;43.40;;;;;;5046585;28;20544;-86
2022/04/17 10:33:57;;;;;;;3.05;1.00;;;17.50;43.10;;;;;;5045870;28;20039;-84
2022/04/17 10:36:57;;;;;;;3.35;1.33;;;17.40;43.50;;;;;;5047329;28;20020;-84
2022/04/17 10:39:31;;;;;;;5.15;1.10;;;17.70;43.80;;;;;;5058450;28;20104;-86
2022/04/17 10:41:58;;;;;;;2.85;1.15;;;17.60;42.10;;;;;;5043134;28;20029;-81
2022/04/17 10:44:29;;;;;;;3.95;1.40;;;17.50;42.60;;;;;;5063767;28;20491;-83
2022/04/17 10:46:56;;;;;;;1.92;1.23;;;;;;;;;;5064181;28;20505;-84
2022/04/17 10:49:32;;;;;;;4.00;1.52;;;18.20;42.50;;;;;;5064105;28;20024;-82
2022/04/17 10:51:59;;;;;;;3.50;1.63;;;;;;;;;;5060272;28;20406;-84
2022/04/17 10:54:45;;;;;;;3.20;1.80;;;18.40;42.80;;;;;;5067962;28;20047;-85
2022/04/17 10:57:11;;;;;;;2.95;1.48;;;;;;;;;;5068954;28;20038;-83
2022/04/17 10:59:37;;;;;;;2.25;1.40;;;;;;;;;;5087837;28;20025;-85
2022/04/17 11:02:04;;;;;;;1.50;1.00;;;;;;;;;;5075724;28;20048;-84
2022/04/17 11:04:40;;;;;;;2.30;1.20;;;18.50;42.00;;;;;;5064167;28;20028;-85
2022/04/17 11:07:10;;;;;;;2.30;1.25;;;;;;;;;;5085331;28;20020;-84
2022/04/17 11:09:42;;;;;;;2.08;1.30;;;18.70;42.00;;;;;;5080498;28;20044;-82
2022/04/17 11:12:08;;;;;;;1.55;1.10;;;;;;;;;;5085788;28;20020;-84
2022/04/17 11:14:34;;;;;;;1.75;1.00;;;;;;;;;;5062037;28;20029;-83
2022/04/17 11:17:08;;;;;;;3.50;0.98;;;18.90;39.90;;;;;;5062269;28;20024;-85
2022/04/17 11:19:35;;;;;;;1.83;0.98;;;18.70;41.30;;;;;;5066896;28;20154;-84
2022/04/17 11:22:04;;;;;;;2.22;1.40;;;18.70;41.10;;;;;;5077927;28;20112;-83
2022/04/17 11:24:55;;;;;;;1.67;1.00;;;18.50;41.50;;;;;;5089829;28;20032;-83
2022/04/17 11:27:43;;;;;;;2.38;1.25;;;;;;;;;;5089076;28;20432;-82
2022/04/17 11:30:30;;;;;;;2.05;1.10;;;18.60;40.80;;;;;;5094272;28;20053;-82
2022/04/17 11:32:56;;;;;;;1.42;0.95;;;;;;;;;;5071253;28;20032;-83
2022/04/17 11:35:24;;;;;;;1.60;0.88;;;18.60;41.60;;;;;;5072715;28;20064;-82
2022/04/17 11:37:59;;;;;;;4.45;1.23;;;18.70;40.00;;;;;;5065626;28;20032;-84
2022/04/17 11:40:27;;;;;;;1.88;0.90;;;18.80;40.20;;;;;;5043324;28;20029;-85
2022/04/17 11:42:54;;;;;;;1.55;0.90;;;18.90;40.40;;;;;;5082590;28;20037;-85
2022/04/17 11:45:25;;;;;;;4.72;1.00;;;18.80;40.90;;;;;;5061843;28;20024;-82
2022/04/17 11:47:53;;;;;;;3.80;1.40;;;18.80;40.30;;;;;;5070065;28;20170;-84
2022/04/17 11:50:26;;;;;;;1.63;1.05;;;18.70;40.20;;;;;;5074727;28;20029;-84
2022/04/17 11:52:54;;;;;;;2.00;1.00;;;18.70;40.00;;;;;;5081971;28;20119;-82
2022/04/17 11:55:28;;;;;;;2.50;0.95;;;18.70;40.30;;;;;;5079515;28;20028;-84
2022/04/17 11:57:55;;;;;;;1.48;0.90;;;;;;;;;;5059880;28;20036;-83
2022/04/17 12:00:21;;;;;;;2.40;1.20;;;;;;;;;;5086317;28;20020;-84
2022/04/17 12:02:47;;;;;;;1.92;0.90;;;;;;;;;;5082100;28;20059;-83
2022/04/17 12:05:13;;;;;;;2.05;1.10;;;;;;;;;;5082030;28;20020;-84
2022/04/17 12:07:40;;;;;;;3.17;1.20;;;;;;;;;;5083601;28;20096;-84
2022/04/17 12:10:07;;;;;;;0.85;0.70;;;18.60;40.70;;;;;;5083219;28;20032;-84
2022/04/17 12:12:35;;;;;;;1.90;1.00;;;18.70;40.40;;;;;;5052174;28;20033;-86
2022/04/17 12:15:04;;;;;;;2.25;0.90;;;;;;;;;;5084072;28;20020;-85
2022/04/17 12:17:34;;;;;;;1.25;0.90;;;18.50;40.20;;;;;;5073645;28;20489;-85
2022/04/17 12:20:00;;;;;;;1.83;1.00;;;;;;;;;;5082695;28;20055;-82
2022/04/17 12:22:26;;;;;;;1.58;1.10;;;;;;;;;;5080325;28;20341;-84
2022/04/17 12:24:52;;;;;;;1.58;0.85;;;;;;;;;;5065860;28;20416;-83
2022/04/17 12:27:22;;;;;;;1.88;1.10;;;;;;;;;;5078080;28;20031;-82
2022/04/17 12:29:49;;;;;;;2.13;1.13;;;19.20;39.60;;;;;;5066168;28;20033;-83
2022/04/17 12:32:20;;;;;;;1.23;0.82;;;19.30;39.30;;;;;;5069868;28;20033;-82
2022/04/17 12:34:46;;;;;;;2.85;0.90;;;;;;;;;;5065736;28;20032;-81
2022/04/17 12:37:32;;;;;;;1.38;0.80;;;19.00;39.50;;;;;;5073465;28;20070;-82
2022/04/17 12:40:08;;;;;;;2.22;1.00;;;;;;;;;;5077958;28;20031;-81
2022/04/17 12:42:34;;;;;;;1.02;0.82;;;;;;;;;;5079519;28;20123;-84
2022/04/17 12:45:00;;;;;;;2.25;1.00;;;;;;;;;;5060229;28;20267;-84
2022/04/17 12:47:26;;;;;;;1.80;1.00;;;;;;;;;;5078683;28;20502;-83
2022/04/17 12:50:00;;;;;;;1.42;0.80;;;19.30;39.70;;;;;;5065654;28;20039;-82
2022/04/17 12:52:32;;;;;;;1.65;0.93;;;;;;;;;;5062759;28;20096;-84
2022/04/17 12:55:09;;;;;;;2.25;1.20;;;19.40;39.90;;;;;;5077672;28;20023;-84
2022/04/17 12:57:35;;;;;;;1.27;0.73;;;;;;;;;;5062378;28;20473;-84
2022/04/17 13:00:01;;;;;;;1.65;0.98;;;;;;;;;;5079086;28;20539;-83
2022/04/17 13:02:28;;;;;;;2.35;1.00;;;19.30;38.70;;;;;;5075895;28;20092;-84
2022/04/17 13:05:01;;;;;;;2.47;1.10;;;19.30;38.90;;;;;;5062834;28;20031;-85
2022/04/17 13:07:37;;;;;;;2.08;1.45;;;19.20;37.80;;;;;;5064414;28;20053;-85
2022/04/17 13:10:06;;;;;;;2.03;0.90;;;19.20;38.30;;;;;;5072531;28;20025;-83
2022/04/17 13:12:32;;;;;;;2.28;0.82;;;;;;;;;;5068128;28;20031;-84
2022/04/17 13:14:58;;;;;;;1.35;0.80;;;18.90;37.80;;;;;;5060268;28;20024;-85
2022/04/17 13:17:24;;;;;;;1.85;0.80;;;18.90;38.40;;;;;;5066623;28;20383;-82
2022/04/17 13:19:50;;;;;;;0.95;0.70;;;;;;;;;;5078087;28;20027;-85
2022/04/17 13:22:16;;;;;;;1.08;0.80;;;;;;;;;;5072105;28;20021;-84
2022/04/17 13:24:45;;;;;;;1.45;0.90;;;18.50;37.40;;;;;;5066291;28;20017;-85
2022/04/17 13:27:12;;;;;;;1.45;0.90;;;;;;;;;;5079042;28;20021;-84
2022/04/17 13:29:38;;;;;;;2.92;1.00;;;;;;;;;;5066565;28;20021;-83
2022/04/17 13:32:04;;;;;;;1.30;0.77;;;;;;;;;;5063428;28;20420;-84
2022/04/17 13:34:33;;;;;;;6.28;1.00;;;;;;;;;;5073063;28;20048;-84
2022/04/17 13:39:48;;;;;;;1.52;0.90;;;;;;;;;;5082931;28;20035;-86
2022/04/17 13:42:14;;;;;;;3.25;1.00;;;;;;;;;;5100033;28;20017;-86
2022/04/17 13:44:43;;;;;;;1.63;0.90;;;;;;;;;;5093975;28;20028;-84
2022/04/17 13:47:09;;;;;;;2.53;1.00;;;;;;;;;;5069866;28;20028;-81
2022/04/17 13:49:35;;;;;;;1.48;1.00;;;;;;;;;;5088569;28;20071;-84
2022/04/17 13:52:01;;;;;;;2.42;1.20;;;;;;;;;;5082178;28;20021;-82